Shamrock, Texas
Current Conditions -  °F | °C
As of 5:15 AM on Sunday 21 Dec 2014 (Local Time) from KHHF Reporting Station
Overcast Overcast  
Wind Chill: 37°   Ceiling: 400
Heat Index: 42°   Visibility: 7mi
Dew Point: 41°   Wind: 7mph
Humidity: 96%   Direction: 180°S
Pressure: 29.91"   Gusts: NA
Location:  35.21°N, 100.25°W
Report Text: KHHF 211115Z AUTO 18006KT 7SM OVC004 06/05 A2991 RMK AO2 T00550049
Loading
Personal Weather Stations






























Interactive Weather Map New forecast layout! Learn more

10-Day Weather Forecast

Advertisements
Track Severe Weather on mobile